createdAt,value
2022-12-08T07:10:21.002Z,0
2022-12-08T07:15:30.916Z,1263
2022-12-08T07:20:40.694Z,1275
2022-12-08T07:25:50.448Z,1300
2022-12-08T07:31:00.245Z,1320
2022-12-08T07:36:10.514Z,1359
2022-12-08T07:41:20.899Z,1304
2022-12-08T07:46:30.888Z,1311
2022-12-08T07:51:40.873Z,1317
2022-12-08T07:56:50.786Z,1303
2022-12-08T08:02:00.555Z,1324
2022-12-08T08:07:10.329Z,1337
2022-12-08T08:12:20.599Z,1351
2022-12-08T08:17:30.357Z,1350
2022-12-08T08:22:40.635Z,1245
2022-12-08T08:27:50.406Z,1267
2022-12-08T08:33:00.182Z,1272
2022-12-08T08:38:09.942Z,1261
2022-12-08T08:43:19.728Z,1278
2022-12-08T08:48:29.489Z,1325
2022-12-08T08:53:39.276Z,1316
2022-12-08T08:58:48.539Z,1318
2022-12-08T09:03:58.808Z,1350
2022-12-08T09:09:09.081Z,1357
2022-12-08T09:14:19.356Z,1363
2022-12-08T09:19:29.630Z,1376
2022-12-08T09:24:39.905Z,1351
2022-12-08T09:29:50.177Z,1208
2022-12-08T09:35:00.448Z,1160
2022-12-08T09:40:10.701Z,1126
2022-12-08T09:45:20.976Z,1158
2022-12-08T09:50:31.255Z,1155
2022-12-08T09:55:41.523Z,1193
2022-12-08T10:00:51.798Z,1191
2022-12-08T10:06:02.076Z,1188
2022-12-08T10:11:12.340Z,1113
2022-12-08T10:16:22.623Z,1107
2022-12-08T10:21:32.879Z,785
2022-12-08T10:26:43.152Z,926
2022-12-08T10:31:53.427Z,957
2022-12-08T10:37:03.702Z,998
2022-12-08T10:42:13.974Z,995
2022-12-08T10:47:24.255Z,1013
2022-12-08T10:52:34.522Z,1033
2022-12-08T10:57:44.794Z,1042
2022-12-08T11:02:55.069Z,1054
2022-12-08T11:08:05.341Z,1078
2022-12-08T11:13:15.609Z,1098
2022-12-08T11:18:25.876Z,1112
2022-12-08T11:23:36.145Z,1118
2022-12-08T11:28:46.424Z,1129
2022-12-08T11:33:56.690Z,1152
2022-12-08T11:39:06.960Z,1165
2022-12-08T11:44:17.241Z,1175
2022-12-08T11:49:27.524Z,1179
2022-12-08T11:54:37.793Z,1180
2022-12-08T11:59:48.061Z,1200
2022-12-08T12:04:58.335Z,1186
2022-12-08T12:10:08.610Z,1188
2022-12-08T12:15:18.886Z,1171
2022-12-08T12:20:29.158Z,1168
2022-12-08T12:25:39.415Z,1165
2022-12-08T12:30:49.685Z,1180
2022-12-08T12:35:59.957Z,1175
2022-12-08T12:41:10.230Z,1158
2022-12-08T12:46:20.506Z,1144
2022-12-08T12:51:30.773Z,1142
2022-12-08T12:56:41.060Z,1138
2022-12-08T13:01:51.457Z,1129
2022-12-08T13:07:01.941Z,1123
2022-12-08T13:12:12.429Z,1126
2022-12-08T13:17:22.822Z,1109
2022-12-08T13:22:33.085Z,1135
2022-12-08T13:27:43.359Z,1136
2022-12-08T13:32:53.649Z,1184
2022-12-08T13:38:04.045Z,1157
2022-12-08T13:43:14.529Z,1160
2022-12-08T13:48:25.005Z,1158
2022-12-08T13:53:35.406Z,1166
2022-12-08T13:58:45.678Z,1168
2022-12-08T14:03:55.953Z,1035
2022-12-08T14:09:06.211Z,1124
2022-12-08T14:14:16.496Z,1139
2022-12-08T14:19:26.766Z,1135
2022-12-08T14:24:37.159Z,1145
2022-12-08T14:29:47.643Z,1165
2022-12-08T14:34:58.118Z,1182
2022-12-08T14:40:08.534Z,1179
2022-12-08T14:45:18.804Z,1166
2022-12-08T14:50:29.072Z,1156
2022-12-08T14:55:39.337Z,1136
2022-12-08T15:00:49.629Z,1125
2022-12-08T15:05:59.901Z,1132
2022-12-08T15:11:10.284Z,1126
2022-12-08T15:16:20.778Z,1113
2022-12-08T15:21:31.242Z,1100
2022-12-08T15:26:41.661Z,1095
2022-12-08T15:31:51.921Z,1085
2022-12-08T15:37:02.196Z,1078
2022-12-08T15:42:12.473Z,1077
2022-12-08T15:47:22.754Z,1083
2022-12-08T15:52:33.021Z,1069
2022-12-08T15:57:43.286Z,1058
2022-12-08T16:02:53.551Z,1096
2022-12-08T16:08:03.952Z,1091
2022-12-08T16:13:14.446Z,1068
2022-12-08T16:18:24.923Z,1079
2022-12-08T16:23:35.324Z,1095
2022-12-08T16:28:45.593Z,1114
2022-12-08T16:33:55.871Z,1128
2022-12-08T16:39:06.132Z,1112
2022-12-08T16:44:16.403Z,1119
2022-12-08T16:49:26.677Z,1132
2022-12-08T16:54:36.956Z,1135
2022-12-08T16:59:47.230Z,1150
2022-12-08T17:04:57.491Z,1171
2022-12-08T17:10:07.766Z,1164
2022-12-08T17:15:18.050Z,1171
2022-12-08T17:20:28.331Z,1179
2022-12-08T17:25:38.589Z,1209
